createdAt,value
2022-12-25T15:33:40.663Z,101294.34
2022-12-25T15:38:46.665Z,101292.73
2022-12-25T15:43:49.304Z,101292.27
2022-12-25T15:48:51.956Z,101299.45
2022-12-25T15:57:20.672Z,101268.49
2022-12-25T16:02:23.604Z,101277.22
2022-12-25T16:07:27.897Z,101285.30
2022-12-25T16:12:30.705Z,101286.38
2022-12-25T16:17:33.353Z,101278.55
2022-12-25T16:22:40.166Z,101275.55
2022-12-25T16:27:43.183Z,101278.52
2022-12-25T16:32:49.064Z,101278.56
2022-12-25T16:37:51.769Z,101289.81
2022-12-25T16:42:57.411Z,101298.15
2022-12-25T16:48:00.011Z,101304.05
2022-12-25T16:53:02.686Z,101300.31
2022-12-25T16:58:05.802Z,101293.36
2022-12-25T17:03:08.555Z,101278.52
2022-12-25T17:08:11.393Z,101283.71
2022-12-25T17:13:14.090Z,101289.23
2022-12-25T17:18:17.603Z,101290.08
2022-12-25T17:23:20.717Z,101279.45
2022-12-25T17:28:23.364Z,101278.08
2022-12-25T17:33:26.030Z,101282.56
2022-12-25T17:38:30.708Z,101271.47
2022-12-25T17:43:34.555Z,101258.51
2022-12-25T17:48:37.236Z,101249.30
2022-12-25T17:53:41.590Z,101246.77
2022-12-25T17:58:44.466Z,101248.98
2022-12-25T18:03:47.361Z,101244.34
2022-12-25T18:08:50.339Z,101238.17
2022-12-25T18:13:53.595Z,101245.38
2022-12-25T18:18:56.273Z,101252.41
2022-12-25T18:23:58.984Z,101257.36
2022-12-25T18:29:01.679Z,101256.50
2022-12-25T18:34:04.567Z,101249.13
2022-12-25T18:39:07.196Z,101248.78
2022-12-25T18:44:09.811Z,101251.70
2022-12-25T18:49:12.450Z,101251.35
2022-12-25T18:54:15.116Z,101246.70
2022-12-25T18:59:18.472Z,101240.70
2022-12-25T19:04:21.146Z,101235.40
2022-12-25T19:09:23.852Z,101242.57
2022-12-25T19:14:28.296Z,101233.67
2022-12-25T19:19:30.985Z,101226.13
2022-12-25T19:24:33.708Z,101214.31
2022-12-25T19:29:36.340Z,101204.55
2022-12-25T19:34:39.015Z,101198.40
2022-12-25T19:39:46.669Z,101194.64
2022-12-25T19:44:49.556Z,101185.59
2022-12-25T19:49:53.347Z,101195.02
2022-12-25T19:54:57.108Z,101199.47
2022-12-25T19:59:59.906Z,101207.36
2022-12-25T20:05:02.607Z,101203.43
2022-12-25T20:11:25.535Z,101210.95
2022-12-25T20:15:28.276Z,101208.58
2022-12-25T20:19:32.196Z,101211.81
2022-12-25T20:23:35.094Z,101204.27
2022-12-25T20:27:37.782Z,101200.32
2022-12-25T20:31:40.458Z,101197.95
2022-12-25T20:37:14.485Z,101195.73
2022-12-25T20:41:27.309Z,101190.27
2022-12-25T20:45:35.024Z,101185.82
2022-12-25T20:49:41.905Z,101182.23
2022-12-25T20:53:49.503Z,101174.18
2022-12-25T20:57:56.160Z,101169.73
2022-12-25T21:02:03.288Z,101159.30
2022-12-25T21:06:12.120Z,101155.39
2022-12-25T21:10:18.903Z,101149.58
2022-12-25T21:14:26.415Z,101151.96
2022-12-25T21:18:33.110Z,101139.30
2022-12-25T21:22:39.869Z,101139.48
2022-12-25T21:26:48.316Z,101133.86
2022-12-25T21:30:55.204Z,101129.23
2022-12-25T21:35:01.971Z,101129.73
2022-12-25T21:39:09.793Z,101127.34
2022-12-25T21:43:16.536Z,101122.73
2022-12-25T21:47:23.210Z,101123.23
2022-12-25T21:51:49.862Z,101117.23
2022-12-25T21:56:02.444Z,101114.68
2022-12-25T22:00:12.119Z,101106.11
2022-12-25T22:04:20.153Z,101105.94
2022-12-25T22:08:31.883Z,101091.90
2022-12-25T22:12:56.167Z,101072.92
2022-12-25T22:17:20.329Z,101073.09
2022-12-25T22:21:27.014Z,101070.36
2022-12-25T22:25:33.733Z,101060.75
2022-12-25T22:29:40.735Z,101063.65
2022-12-25T22:33:47.496Z,101049.08
2022-12-25T22:37:54.658Z,101038.49
2022-12-25T22:42:03.003Z,101029.25
2022-12-25T22:46:09.831Z,101022.79
2022-12-25T22:50:17.172Z,101022.61
2022-12-25T22:54:24.997Z,101012.85
2022-12-25T22:58:31.736Z,101007.04
2022-12-25T23:02:38.700Z,101000.52
2022-12-25T23:06:46.535Z,101006.16
2022-12-25T23:10:53.990Z,101022.26
2022-12-25T23:15:00.784Z,101020.20
2022-12-25T23:19:25.809Z,101005.66
2022-12-25T23:23:50.182Z,100998.81
2022-12-25T23:27:56.882Z,100995.08
2022-12-25T23:32:04.163Z,100993.90
2022-12-25T23:36:11.336Z,100992.03
2022-12-25T23:40:18.442Z,100990.83
2022-12-25T23:44:25.623Z,100987.60
2022-12-25T23:48:32.420Z,100978.40
2022-12-25T23:52:39.907Z,100969.88
2022-12-25T23:56:47.305Z,100961.48
